sensor_id;sensor_type;location;lat;lon;timestamp;temperature;humidity
40660;DHT22;26753;45.544;9.232;2023-02-20T00:01:31;12.30;99.90
40660;DHT22;26753;45.544;9.232;2023-02-20T00:03:59;11.40;99.90
40660;DHT22;26753;45.544;9.232;2023-02-20T00:06:25;10.40;99.90
40660;DHT22;26753;45.544;9.232;2023-02-20T00:08:51;10.90;99.90
40660;DHT22;26753;45.544;9.232;2023-02-20T00:11:16;12.20;99.90
40660;DHT22;26753;45.544;9.232;2023-02-20T00:13:51;11.90;99.90
40660;DHT22;26753;45.544;9.232;2023-02-20T00:16:17;11.80;99.90
40660;DHT22;26753;45.544;9.232;2023-02-20T00:18:43;12.10;99.90
40660;DHT22;26753;45.544;9.232;2023-02-20T00:21:08;12.80;99.90
40660;DHT22;26753;45.544;9.232;2023-02-20T00:23:34;11.60;99.90
40660;DHT22;26753;45.544;9.232;2023-02-20T00:26:00;12.90;99.90
40660;DHT22;26753;45.544;9.232;2023-02-20T00:28:26;11.40;99.90
40660;DHT22;26753;45.544;9.232;2023-02-20T00:30:52;11.50;99.90
40660;DHT22;26753;45.544;9.232;2023-02-20T00:33:17;11.60;99.90
40660;DHT22;26753;45.544;9.232;2023-02-20T00:35:43;11.20;99.90
40660;DHT22;26753;45.544;9.232;2023-02-20T00:38:09;11.10;99.90
40660;DHT22;26753;45.544;9.232;2023-02-20T00:43:26;12.40;99.90
40660;DHT22;26753;45.544;9.232;2023-02-20T00:45:53;11.00;99.90
40660;DHT22;26753;45.544;9.232;2023-02-20T00:48:20;10.00;99.90
40660;DHT22;26753;45.544;9.232;2023-02-20T00:50:45;10.00;99.90
40660;DHT22;26753;45.544;9.232;2023-02-20T00:53:11;11.00;99.90
40660;DHT22;26753;45.544;9.232;2023-02-20T00:55:40;10.10;99.90
40660;DHT22;26753;45.544;9.232;2023-02-20T00:58:05;11.50;99.90
40660;DHT22;26753;45.544;9.232;2023-02-20T01:00:31;11.10;99.90
40660;DHT22;26753;45.544;9.232;2023-02-20T01:02:57;12.50;99.90
40660;DHT22;26753;45.544;9.232;2023-02-20T01:05:22;10.20;99.90
40660;DHT22;26753;45.544;9.232;2023-02-20T01:07:48;11.90;99.90
40660;DHT22;26753;45.544;9.232;2023-02-20T01:10:14;11.90;99.90
40660;DHT22;26753;45.544;9.232;2023-02-20T01:12:39;10.50;99.90
40660;DHT22;26753;45.544;9.232;2023-02-20T01:15:05;12.00;99.90
40660;DHT22;26753;45.544;9.232;2023-02-20T01:17:32;11.50;99.90
40660;DHT22;26753;45.544;9.232;2023-02-20T01:19:57;11.30;99.90
40660;DHT22;26753;45.544;9.232;2023-02-20T01:22:23;10.30;99.90
40660;DHT22;26753;45.544;9.232;2023-02-20T01:24:49;12.10;99.90
40660;DHT22;26753;45.544;9.232;2023-02-20T01:27:15;11.30;99.90
40660;DHT22;26753;45.544;9.232;2023-02-20T01:29:41;11.60;99.90
40660;DHT22;26753;45.544;9.232;2023-02-20T01:32:10;11.10;99.90
40660;DHT22;26753;45.544;9.232;2023-02-20T01:34:39;10.80;99.90
40660;DHT22;26753;45.544;9.232;2023-02-20T01:37:05;11.50;99.90
40660;DHT22;26753;45.544;9.232;2023-02-20T01:39:31;11.30;99.90
40660;DHT22;26753;45.544;9.232;2023-02-20T01:41:58;10.50;99.90
40660;DHT22;26753;45.544;9.232;2023-02-20T01:44:26;11.80;99.90
40660;DHT22;26753;45.544;9.232;2023-02-20T01:46:54;10.00;99.90
40660;DHT22;26753;45.544;9.232;2023-02-20T01:50:03;9.60;99.90
40660;DHT22;26753;45.544;9.232;2023-02-20T01:54:38;11.70;99.90
40660;DHT22;26753;45.544;9.232;2023-02-20T01:57:05;11.10;99.90
40660;DHT22;26753;45.544;9.232;2023-02-20T01:59:32;9.80;99.90
40660;DHT22;26753;45.544;9.232;2023-02-20T02:02:00;11.20;99.90
40660;DHT22;26753;45.544;9.232;2023-02-20T02:04:25;11.00;99.90
40660;DHT22;26753;45.544;9.232;2023-02-20T02:06:51;11.90;99.90
40660;DHT22;26753;45.544;9.232;2023-02-20T02:09:22;11.60;99.90
40660;DHT22;26753;45.544;9.232;2023-02-20T02:11:48;11.80;99.90
40660;DHT22;26753;45.544;9.232;2023-02-20T02:24:32;10.40;99.90
40660;DHT22;26753;45.544;9.232;2023-02-20T02:32:09;13.30;99.90
40660;DHT22;26753;45.544;9.232;2023-02-20T02:37:23;10.60;99.90
40660;DHT22;26753;45.544;9.232;2023-02-20T02:42:21;9.70;99.90
40660;DHT22;26753;45.544;9.232;2023-02-20T02:52:35;10.90;99.90
40660;DHT22;26753;45.544;9.232;2023-02-20T02:55:17;11.80;99.90
40660;DHT22;26753;45.544;9.232;2023-02-20T02:57:45;10.50;99.90
40660;DHT22;26753;45.544;9.232;2023-02-20T03:05:22;9.50;99.90
40660;DHT22;26753;45.544;9.232;2023-02-20T03:07:49;11.20;99.90
40660;DHT22;26753;45.544;9.232;2023-02-20T03:10:17;10.70;99.90
40660;DHT22;26753;45.544;9.232;2023-02-20T03:12:46;11.20;99.90
40660;DHT22;26753;45.544;9.232;2023-02-20T03:15:16;10.50;99.90
40660;DHT22;26753;45.544;9.232;2023-02-20T03:18:05;9.00;99.90
40660;DHT22;26753;45.544;9.232;2023-02-20T03:20:38;9.70;99.90
40660;DHT22;26753;45.544;9.232;2023-02-20T03:23:05;11.40;99.90
40660;DHT22;26753;45.544;9.232;2023-02-20T03:25:33;12.50;99.90
40660;DHT22;26753;45.544;9.232;2023-02-20T03:30:44;10.70;99.90
40660;DHT22;26753;45.544;9.232;2023-02-20T03:33:16;11.40;99.90
40660;DHT22;26753;45.544;9.232;2023-02-20T03:36:03;9.90;99.90
40660;DHT22;26753;45.544;9.232;2023-02-20T03:38:49;12.20;99.90
40660;DHT22;26753;45.544;9.232;2023-02-20T03:44:19;11.30;99.90
40660;DHT22;26753;45.544;9.232;2023-02-20T03:46:46;10.90;99.90
40660;DHT22;26753;45.544;9.232;2023-02-20T03:49:14;10.90;99.90
40660;DHT22;26753;45.544;9.232;2023-02-20T03:51:43;11.60;99.90
40660;DHT22;26753;45.544;9.232;2023-02-20T03:54:09;11.50;99.90
40660;DHT22;26753;45.544;9.232;2023-02-20T03:59:04;9.70;99.90
40660;DHT22;26753;45.544;9.232;2023-02-20T04:01:30;11.20;99.90
40660;DHT22;26753;45.544;9.232;2023-02-20T04:03:56;9.00;99.90
40660;DHT22;26753;45.544;9.232;2023-02-20T04:06:24;10.40;99.90
40660;DHT22;26753;45.544;9.232;2023-02-20T04:09:16;9.60;99.90
40660;DHT22;26753;45.544;9.232;2023-02-20T04:11:54;9.80;99.90
40660;DHT22;26753;45.544;9.232;2023-02-20T04:14:21;10.20;99.90
40660;DHT22;26753;45.544;9.232;2023-02-20T04:16:52;9.60;99.90
40660;DHT22;26753;45.544;9.232;2023-02-20T04:19:42;10.40;99.90
40660;DHT22;26753;45.544;9.232;2023-02-20T04:22:11;10.50;99.90
40660;DHT22;26753;45.544;9.232;2023-02-20T04:28:44;9.70;99.90
40660;DHT22;26753;45.544;9.232;2023-02-20T04:30:57;10.50;99.90
40660;DHT22;26753;45.544;9.232;2023-02-20T04:33:23;10.20;99.90
40660;DHT22;26753;45.544;9.232;2023-02-20T04:35:49;10.80;99.90
40660;DHT22;26753;45.544;9.232;2023-02-20T04:38:18;9.70;99.90
40660;DHT22;26753;45.544;9.232;2023-02-20T04:41:01;9.20;99.90
40660;DHT22;26753;45.544;9.232;2023-02-20T04:43:27;9.50;99.90
40660;DHT22;26753;45.544;9.232;2023-02-20T04:46:22;11.30;99.90
40660;DHT22;26753;45.544;9.232;2023-02-20T04:48:56;11.20;99.90
40660;DHT22;26753;45.544;9.232;2023-02-20T04:51:29;10.60;99.90
40660;DHT22;26753;45.544;9.232;2023-02-20T04:56:55;10.40;99.90
40660;DHT22;26753;45.544;9.232;2023-02-20T04:59:23;10.20;99.90
40660;DHT22;26753;45.544;9.232;2023-02-20T05:01:50;9.60;99.90
40660;DHT22;26753;45.544;9.232;2023-02-20T05:04:17;9.50;99.90
40660;DHT22;26753;45.544;9.232;2023-02-20T05:06:45;10.30;99.90
40660;DHT22;26753;45.544;9.232;2023-02-20T05:09:17;9.50;99.90
40660;DHT22;26753;45.544;9.232;2023-02-20T05:15:00;11.70;99.90
40660;DHT22;26753;45.544;9.232;2023-02-20T05:17:41;11.10;99.90
40660;DHT22;26753;45.544;9.232;2023-02-20T05:20:12;11.10;99.90
40660;DHT22;26753;45.544;9.232;2023-02-20T05:22:38;10.40;99.90
40660;DHT22;26753;45.544;9.232;2023-02-20T05:25:04;10.30;99.90
40660;DHT22;26753;45.544;9.232;2023-02-20T05:27:39;11.00;99.90
40660;DHT22;26753;45.544;9.232;2023-02-20T05:30:05;10.30;99.90
40660;DHT22;26753;45.544;9.232;2023-02-20T05:32:31;11.20;99.90
40660;DHT22;26753;45.544;9.232;2023-02-20T05:38:15;13.40;99.90
40660;DHT22;26753;45.544;9.232;2023-02-20T05:40:53;10.40;99.90
40660;DHT22;26753;45.544;9.232;2023-02-20T05:43:40;10.80;99.90
40660;DHT22;26753;45.544;9.232;2023-02-20T05:46:06;10.70;99.90
40660;DHT22;26753;45.544;9.232;2023-02-20T05:48:35;11.80;99.90
40660;DHT22;26753;45.544;9.232;2023-02-20T05:51:03;11.70;99.90
40660;DHT22;26753;45.544;9.232;2023-02-20T05:55:55;11.20;99.90
40660;DHT22;26753;45.544;9.232;2023-02-20T05:58:24;11.40;99.90
40660;DHT22;26753;45.544;9.232;2023-02-20T06:00:50;10.10;99.90
40660;DHT22;26753;45.544;9.232;2023-02-20T06:03:18;11.60;99.90
40660;DHT22;26753;45.544;9.232;2023-02-20T06:05:57;11.90;99.90
40660;DHT22;26753;45.544;9.232;2023-02-20T06:08:44;9.50;99.90
40660;DHT22;26753;45.544;9.232;2023-02-20T06:14:08;10.20;99.90
40660;DHT22;26753;45.544;9.232;2023-02-20T06:16:34;10.90;99.90
40660;DHT22;26753;45.544;9.232;2023-02-20T06:19:00;10.30;99.90
40660;DHT22;26753;45.544;9.232;2023-02-20T06:24:48;10.50;99.90
40660;DHT22;26753;45.544;9.232;2023-02-20T06:27:18;11.20;99.90
40660;DHT22;26753;45.544;9.232;2023-02-20T06:29:47;12.30;99.90
40660;DHT22;26753;45.544;9.232;2023-02-20T06:32:16;11.50;99.90
40660;DHT22;26753;45.544;9.232;2023-02-20T06:34:44;10.80;99.90
40660;DHT22;26753;45.544;9.232;2023-02-20T06:37:11;11.40;99.90
40660;DHT22;26753;45.544;9.232;2023-02-20T06:39:37;10.10;99.90
40660;DHT22;26753;45.544;9.232;2023-02-20T06:42:14;10.70;99.90
40660;DHT22;26753;45.544;9.232;2023-02-20T06:44:39;12.90;99.90
40660;DHT22;26753;45.544;9.232;2023-02-20T06:47:05;10.00;99.90
40660;DHT22;26753;45.544;9.232;2023-02-20T06:49:36;11.50;99.90
40660;DHT22;26753;45.544;9.232;2023-02-20T06:52:05;11.90;99.90
40660;DHT22;26753;45.544;9.232;2023-02-20T06:54:31;12.10;99.90
40660;DHT22;26753;45.544;9.232;2023-02-20T06:56:58;12.40;99.90
40660;DHT22;26753;45.544;9.232;2023-02-20T06:59:24;11.90;99.90
40660;DHT22;26753;45.544;9.232;2023-02-20T07:01:50;10.10;99.90
40660;DHT22;26753;45.544;9.232;2023-02-20T07:04:34;12.00;99.90
40660;DHT22;26753;45.544;9.232;2023-02-20T07:07:03;11.50;99.90
40660;DHT22;26753;45.544;9.232;2023-02-20T07:09:39;12.30;99.90
40660;DHT22;26753;45.544;9.232;2023-02-20T07:12:05;12.00;99.90
40660;DHT22;26753;45.544;9.232;2023-02-20T07:14:42;11.40;99.90
40660;DHT22;26753;45.544;9.232;2023-02-20T07:17:08;11.10;99.90
40660;DHT22;26753;45.544;9.232;2023-02-20T07:19:34;11.20;99.90
40660;DHT22;26753;45.544;9.232;2023-02-20T07:21:59;12.80;99.90
40660;DHT22;26753;45.544;9.232;2023-02-20T07:24:25;12.00;99.90
40660;DHT22;26753;45.544;9.232;2023-02-20T07:26:51;11.30;99.90
40660;DHT22;26753;45.544;9.232;2023-02-20T07:29:16;12.30;99.90
40660;DHT22;26753;45.544;9.232;2023-02-20T07:31:44;11.80;99.90
40660;DHT22;26753;45.544;9.232;2023-02-20T07:34:10;11.80;99.90
40660;DHT22;26753;45.544;9.232;2023-02-20T07:36:36;11.40;99.90
40660;DHT22;26753;45.544;9.232;2023-02-20T07:39:03;12.50;99.90
40660;DHT22;26753;45.544;9.232;2023-02-20T07:41:31;11.90;99.90
40660;DHT22;26753;45.544;9.232;2023-02-20T07:44:02;13.30;99.90
40660;DHT22;26753;45.544;9.232;2023-02-20T07:46:28;12.50;99.90
40660;DHT22;26753;45.544;9.232;2023-02-20T07:48:59;12.70;99.90
40660;DHT22;26753;45.544;9.232;2023-02-20T07:51:24;12.40;99.90
40660;DHT22;26753;45.544;9.232;2023-02-20T07:53:50;12.20;99.90
40660;DHT22;26753;45.544;9.232;2023-02-20T07:56:17;11.70;99.90
40660;DHT22;26753;45.544;9.232;2023-02-20T07:58:44;12.50;99.90
40660;DHT22;26753;45.544;9.232;2023-02-20T08:01:09;11.80;99.90
40660;DHT22;26753;45.544;9.232;2023-02-20T08:03:37;13.30;99.90
40660;DHT22;26753;45.544;9.232;2023-02-20T08:06:03;11.60;99.90
40660;DHT22;26753;45.544;9.232;2023-02-20T08:08:29;11.70;99.90
40660;DHT22;26753;45.544;9.232;2023-02-20T08:10:54;11.60;99.90
40660;DHT22;26753;45.544;9.232;2023-02-20T08:13:20;12.00;99.90
40660;DHT22;26753;45.544;9.232;2023-02-20T08:15:46;12.60;99.90
40660;DHT22;26753;45.544;9.232;2023-02-20T08:20:40;12.40;99.90
40660;DHT22;26753;45.544;9.232;2023-02-20T08:23:14;12.90;99.90
40660;DHT22;26753;45.544;9.232;2023-02-20T08:28:06;13.90;99.90
40660;DHT22;26753;45.544;9.232;2023-02-20T08:30:31;11.90;99.90
40660;DHT22;26753;45.544;9.232;2023-02-20T08:32:57;13.10;99.90
40660;DHT22;26753;45.544;9.232;2023-02-20T08:35:23;12.90;99.90
40660;DHT22;26753;45.544;9.232;2023-02-20T08:37:50;13.10;99.90
40660;DHT22;26753;45.544;9.232;2023-02-20T08:40:18;13.90;99.90
40660;DHT22;26753;45.544;9.232;2023-02-20T08:42:44;12.80;99.90
40660;DHT22;26753;45.544;9.232;2023-02-20T08:45:10;11.50;99.90
40660;DHT22;26753;45.544;9.232;2023-02-20T08:47:35;13.30;99.90
40660;DHT22;26753;45.544;9.232;2023-02-20T08:50:07;12.30;99.90
40660;DHT22;26753;45.544;9.232;2023-02-20T08:52:36;12.90;99.90
40660;DHT22;26753;45.544;9.232;2023-02-20T08:55:01;12.60;99.90
40660;DHT22;26753;45.544;9.232;2023-02-20T08:57:36;12.00;99.90
40660;DHT22;26753;45.544;9.232;2023-02-20T09:00:20;12.50;99.90
40660;DHT22;26753;45.544;9.232;2023-02-20T09:02:46;12.90;99.90
40660;DHT22;26753;45.544;9.232;2023-02-20T09:05:13;12.50;99.90
40660;DHT22;26753;45.544;9.232;2023-02-20T09:07:38;11.40;99.90
40660;DHT22;26753;45.544;9.232;2023-02-20T09:10:04;12.50;99.90
40660;DHT22;26753;45.544;9.232;2023-02-20T09:12:48;12.40;99.90
40660;DHT22;26753;45.544;9.232;2023-02-20T09:15:14;12.60;99.90
40660;DHT22;26753;45.544;9.232;2023-02-20T09:17:43;13.80;99.90
40660;DHT22;26753;45.544;9.232;2023-02-20T09:20:16;12.50;99.90
40660;DHT22;26753;45.544;9.232;2023-02-20T09:22:56;12.20;99.90
40660;DHT22;26753;45.544;9.232;2023-02-20T09:25:22;13.20;99.90
40660;DHT22;26753;45.544;9.232;2023-02-20T09:27:48;12.30;99.90
40660;DHT22;26753;45.544;9.232;2023-02-20T09:30:17;12.80;99.90
40660;DHT22;26753;45.544;9.232;2023-02-20T09:32:48;12.40;99.90
40660;DHT22;26753;45.544;9.232;2023-02-20T09:35:19;12.20;99.90
40660;DHT22;26753;45.544;9.232;2023-02-20T09:38:09;13.10;99.90
40660;DHT22;26753;45.544;9.232;2023-02-20T09:40:55;13.20;99.90
40660;DHT22;26753;45.544;9.232;2023-02-20T09:51:05;12.10;99.90
40660;DHT22;26753;45.544;9.232;2023-02-20T09:53:51;12.90;99.90
40660;DHT22;26753;45.544;9.232;2023-02-20T09:56:20;13.60;99.90
40660;DHT22;26753;45.544;9.232;2023-02-20T10:01:24;13.40;99.90
40660;DHT22;26753;45.544;9.232;2023-02-20T10:04:52;13.20;99.90
40660;DHT22;26753;45.544;9.232;2023-02-20T10:10:04;14.30;99.90
40660;DHT22;26753;45.544;9.232;2023-02-20T10:15:48;13.90;99.90
40660;DHT22;26753;45.544;9.232;2023-02-20T10:23:44;13.20;99.90
40660;DHT22;26753;45.544;9.232;2023-02-20T10:38:33;14.00;99.90
40660;DHT22;26753;45.544;9.232;2023-02-20T10:52:24;14.20;99.90
40660;DHT22;26753;45.544;9.232;2023-02-20T10:58:15;14.00;99.90
40660;DHT22;26753;45.544;9.232;2023-02-20T11:07:17;13.70;99.90
40660;DHT22;26753;45.544;9.232;2023-02-20T11:10:02;14.70;99.90
40660;DHT22;26753;45.544;9.232;2023-02-20T11:15:35;15.50;99.90
40660;DHT22;26753;45.544;9.232;2023-02-20T11:23:46;16.80;99.90
40660;DHT22;26753;45.544;9.232;2023-02-20T11:29:22;17.40;99.90
40660;DHT22;26753;45.544;9.232;2023-02-20T11:35:33;18.10;99.90
40660;DHT22;26753;45.544;9.232;2023-02-20T11:43:34;18.90;99.90
40660;DHT22;26753;45.544;9.232;2023-02-20T11:46:22;19.20;99.90
40660;DHT22;26753;45.544;9.232;2023-02-20T11:49:05;19.30;99.90
40660;DHT22;26753;45.544;9.232;2023-02-20T11:51:43;19.40;99.90
40660;DHT22;26753;45.544;9.232;2023-02-20T11:54:26;19.40;99.90
40660;DHT22;26753;45.544;9.232;2023-02-20T11:59:37;19.80;99.90
40660;DHT22;26753;45.544;9.232;2023-02-20T12:02:27;20.10;99.90
40660;DHT22;26753;45.544;9.232;2023-02-20T12:07:56;20.20;99.90
40660;DHT22;26753;45.544;9.232;2023-02-20T12:10:41;19.90;99.90
40660;DHT22;26753;45.544;9.232;2023-02-20T12:13:20;19.80;99.90
40660;DHT22;26753;45.544;9.232;2023-02-20T12:15:50;19.80;99.90
40660;DHT22;26753;45.544;9.232;2023-02-20T12:18:40;19.90;99.90
40660;DHT22;26753;45.544;9.232;2023-02-20T12:21:13;19.60;99.90
40660;DHT22;26753;45.544;9.232;2023-02-20T12:48:43;27.70;91.20
40660;DHT22;26753;45.544;9.232;2023-02-20T12:53:50;27.80;85.20
40660;DHT22;26753;45.544;9.232;2023-02-20T12:57:06;27.50;83.40
40660;DHT22;26753;45.544;9.232;2023-02-20T13:02:12;28.30;82.80
40660;DHT22;26753;45.544;9.232;2023-02-20T13:04:59;28.60;79.90
40660;DHT22;26753;45.544;9.232;2023-02-20T13:09:58;30.20;77.20
40660;DHT22;26753;45.544;9.232;2023-02-20T13:20:27;33.20;68.20
40660;DHT22;26753;45.544;9.232;2023-02-20T13:28:54;34.30;63.10
40660;DHT22;26753;45.544;9.232;2023-02-20T13:41:56;33.40;60.00
40660;DHT22;26753;45.544;9.232;2023-02-20T13:44:39;32.00;61.90
40660;DHT22;26753;45.544;9.232;2023-02-20T13:58:18;27.90;66.30
40660;DHT22;26753;45.544;9.232;2023-02-20T14:01:00;28.20;66.00
40660;DHT22;26753;45.544;9.232;2023-02-20T14:06:30;29.10;65.60
40660;DHT22;26753;45.544;9.232;2023-02-20T14:12:03;30.00;63.90
40660;DHT22;26753;45.544;9.232;2023-02-20T14:14:40;29.40;63.60
40660;DHT22;26753;45.544;9.232;2023-02-20T14:17:08;28.80;65.20
40660;DHT22;26753;45.544;9.232;2023-02-20T14:19:41;28.90;65.60
40660;DHT22;26753;45.544;9.232;2023-02-20T14:24:42;26.60;66.60
40660;DHT22;26753;45.544;9.232;2023-02-20T14:27:31;26.40;68.00
40660;DHT22;26753;45.544;9.232;2023-02-20T14:32:53;29.70;66.00
40660;DHT22;26753;45.544;9.232;2023-02-20T14:35:41;29.80;64.90
40660;DHT22;26753;45.544;9.232;2023-02-20T14:40:42;27.80;66.20
40660;DHT22;26753;45.544;9.232;2023-02-20T14:43:21;27.30;67.20
40660;DHT22;26753;45.544;9.232;2023-02-20T14:45:48;28.30;67.00
40660;DHT22;26753;45.544;9.232;2023-02-20T14:48:23;30.00;66.00
40660;DHT22;26753;45.544;9.232;2023-02-20T14:51:12;31.50;64.40
40660;DHT22;26753;45.544;9.232;2023-02-20T14:53:38;32.20;63.00
40660;DHT22;26753;45.544;9.232;2023-02-20T14:56:16;33.00;61.80
40660;DHT22;26753;45.544;9.232;2023-02-20T14:58:43;33.10;60.90
40660;DHT22;26753;45.544;9.232;2023-02-20T15:07:24;31.40;61.90
40660;DHT22;26753;45.544;9.232;2023-02-20T15:09:58;31.60;62.40
40660;DHT22;26753;45.544;9.232;2023-02-20T15:15:06;28.70;63.40
40660;DHT22;26753;45.544;9.232;2023-02-20T15:17:40;27.00;65.70
40660;DHT22;26753;45.544;9.232;2023-02-20T15:25:43;24.60;70.60
40660;DHT22;26753;45.544;9.232;2023-02-20T15:31:05;24.00;72.40
40660;DHT22;26753;45.544;9.232;2023-02-20T15:33:32;23.90;72.90
40660;DHT22;26753;45.544;9.232;2023-02-20T15:36:01;23.40;73.90
40660;DHT22;26753;45.544;9.232;2023-02-20T15:38:32;22.70;75.20
40660;DHT22;26753;45.544;9.232;2023-02-20T15:40:59;22.60;76.10
40660;DHT22;26753;45.544;9.232;2023-02-20T15:43:28;22.30;76.80
40660;DHT22;26753;45.544;9.232;2023-02-20T15:45:54;22.30;77.30
40660;DHT22;26753;45.544;9.232;2023-02-20T15:48:20;21.90;78.10
40660;DHT22;26753;45.544;9.232;2023-02-20T15:50:46;21.70;79.10
40660;DHT22;26753;45.544;9.232;2023-02-20T15:53:33;21.10;80.30
40660;DHT22;26753;45.544;9.232;2023-02-20T15:56:01;20.90;81.40
40660;DHT22;26753;45.544;9.232;2023-02-20T15:58:28;20.90;82.40
40660;DHT22;26753;45.544;9.232;2023-02-20T16:00:55;20.40;84.00
40660;DHT22;26753;45.544;9.232;2023-02-20T16:03:21;20.20;85.30
40660;DHT22;26753;45.544;9.232;2023-02-20T16:05:56;20.30;85.50
40660;DHT22;26753;45.544;9.232;2023-02-20T16:08:37;20.00;86.60
40660;DHT22;26753;45.544;9.232;2023-02-20T16:11:05;20.00;87.30
40660;DHT22;26753;45.544;9.232;2023-02-20T16:13:41;19.80;87.90
40660;DHT22;26753;45.544;9.232;2023-02-20T16:16:14;19.50;89.50
40660;DHT22;26753;45.544;9.232;2023-02-20T16:18:47;19.30;90.30
40660;DHT22;26753;45.544;9.232;2023-02-20T16:21:19;19.00;91.30
40660;DHT22;26753;45.544;9.232;2023-02-20T16:23:45;18.90;91.80
40660;DHT22;26753;45.544;9.232;2023-02-20T16:26:14;18.90;92.20
40660;DHT22;26753;45.544;9.232;2023-02-20T16:28:40;18.80;93.00
40660;DHT22;26753;45.544;9.232;2023-02-20T16:31:07;18.50;93.40
40660;DHT22;26753;45.544;9.232;2023-02-20T16:33:34;18.40;94.40
40660;DHT22;26753;45.544;9.232;2023-02-20T16:36:00;18.00;95.70
40660;DHT22;26753;45.544;9.232;2023-02-20T16:38:34;17.80;96.70
40660;DHT22;26753;45.544;9.232;2023-02-20T16:41:00;17.60;97.90
40660;DHT22;26753;45.544;9.232;2023-02-20T16:43:31;17.30;99.90
40660;DHT22;26753;45.544;9.232;2023-02-20T16:46:06;17.00;99.90
40660;DHT22;26753;45.544;9.232;2023-02-20T16:48:41;16.80;99.90
40660;DHT22;26753;45.544;9.232;2023-02-20T16:51:13;16.60;99.90
40660;DHT22;26753;45.544;9.232;2023-02-20T16:53:53;16.30;99.90
40660;DHT22;26753;45.544;9.232;2023-02-20T16:56:18;16.50;99.90
40660;DHT22;26753;45.544;9.232;2023-02-20T16:58:44;16.50;99.90
40660;DHT22;26753;45.544;9.232;2023-02-20T17:01:10;16.20;99.90
40660;DHT22;26753;45.544;9.232;2023-02-20T17:03:38;16.10;99.90
40660;DHT22;26753;45.544;9.232;2023-02-20T17:06:04;15.90;99.90
40660;DHT22;26753;45.544;9.232;2023-02-20T17:08:39;15.70;99.90
40660;DHT22;26753;45.544;9.232;2023-02-20T17:11:04;15.50;99.90
40660;DHT22;26753;45.544;9.232;2023-02-20T17:13:30;15.30;99.90
40660;DHT22;26753;45.544;9.232;2023-02-20T17:16:01;15.20;99.90
40660;DHT22;26753;45.544;9.232;2023-02-20T17:18:37;14.90;99.90
40660;DHT22;26753;45.544;9.232;2023-02-20T17:21:03;15.10;99.90
40660;DHT22;26753;45.544;9.232;2023-02-20T17:23:34;14.90;99.90
40660;DHT22;26753;45.544;9.232;2023-02-20T17:26:00;14.10;99.90
40660;DHT22;26753;45.544;9.232;2023-02-20T17:28:31;14.70;99.90
40660;DHT22;26753;45.544;9.232;2023-02-20T17:30:57;14.90;99.90
40660;DHT22;26753;45.544;9.232;2023-02-20T17:33:34;14.70;99.90
40660;DHT22;26753;45.544;9.232;2023-02-20T17:36:00;14.70;99.90
40660;DHT22;26753;45.544;9.232;2023-02-20T17:38:25;14.50;99.90
40660;DHT22;26753;45.544;9.232;2023-02-20T17:40:51;14.60;99.90
40660;DHT22;26753;45.544;9.232;2023-02-20T17:43:17;14.50;99.90
40660;DHT22;26753;45.544;9.232;2023-02-20T17:45:42;14.50;99.90
40660;DHT22;26753;45.544;9.232;2023-02-20T17:48:15;14.40;99.90
40660;DHT22;26753;45.544;9.232;2023-02-20T17:50:41;14.40;99.90
40660;DHT22;26753;45.544;9.232;2023-02-20T17:53:06;14.40;99.90
40660;DHT22;26753;45.544;9.232;2023-02-20T17:55:34;14.30;99.90
40660;DHT22;26753;45.544;9.232;2023-02-20T17:58:00;14.40;99.90
40660;DHT22;26753;45.544;9.232;2023-02-20T18:00:25;14.50;99.90
40660;DHT22;26753;45.544;9.232;2023-02-20T18:02:51;14.30;99.90
40660;DHT22;26753;45.544;9.232;2023-02-20T18:05:17;14.30;99.90
40660;DHT22;26753;45.544;9.232;2023-02-20T18:07:42;14.10;99.90
40660;DHT22;26753;45.544;9.232;2023-02-20T18:10:08;13.90;99.90
40660;DHT22;26753;45.544;9.232;2023-02-20T18:12:33;14.00;99.90
40660;DHT22;26753;45.544;9.232;2023-02-20T18:14:59;13.90;99.90
40660;DHT22;26753;45.544;9.232;2023-02-20T18:17:25;13.70;99.90
40660;DHT22;26753;45.544;9.232;2023-02-20T18:19:50;12.80;99.90
40660;DHT22;26753;45.544;9.232;2023-02-20T18:22:16;13.90;99.90
40660;DHT22;26753;45.544;9.232;2023-02-20T18:24:41;14.00;99.90
40660;DHT22;26753;45.544;9.232;2023-02-20T18:27:07;14.00;99.90
40660;DHT22;26753;45.544;9.232;2023-02-20T18:29:34;14.00;99.90
40660;DHT22;26753;45.544;9.232;2023-02-20T18:32:00;13.80;99.90
40660;DHT22;26753;45.544;9.232;2023-02-20T18:34:26;13.90;99.90
40660;DHT22;26753;45.544;9.232;2023-02-20T18:36:52;12.30;99.90
40660;DHT22;26753;45.544;9.232;2023-02-20T18:39:18;13.90;99.90
40660;DHT22;26753;45.544;9.232;2023-02-20T18:41:47;13.80;99.90
40660;DHT22;26753;45.544;9.232;2023-02-20T18:44:13;13.80;99.90
40660;DHT22;26753;45.544;9.232;2023-02-20T18:46:39;13.70;99.90
40660;DHT22;26753;45.544;9.232;2023-02-20T18:49:04;13.70;99.90
40660;DHT22;26753;45.544;9.232;2023-02-20T18:51:31;13.80;99.90
40660;DHT22;26753;45.544;9.232;2023-02-20T18:53:57;13.80;99.90
40660;DHT22;26753;45.544;9.232;2023-02-20T18:56:32;13.80;99.90
40660;DHT22;26753;45.544;9.232;2023-02-20T18:59:02;13.60;99.90
40660;DHT22;26753;45.544;9.232;2023-02-20T19:01:29;13.50;99.90
40660;DHT22;26753;45.544;9.232;2023-02-20T19:03:55;13.20;99.90
40660;DHT22;26753;45.544;9.232;2023-02-20T19:06:28;13.50;99.90
40660;DHT22;26753;45.544;9.232;2023-02-20T19:09:00;14.40;99.90
40660;DHT22;26753;45.544;9.232;2023-02-20T19:11:36;13.10;99.90
40660;DHT22;26753;45.544;9.232;2023-02-20T19:14:02;13.10;99.90
40660;DHT22;26753;45.544;9.232;2023-02-20T19:19:16;11.80;99.90
40660;DHT22;26753;45.544;9.232;2023-02-20T19:21:42;13.20;99.90
40660;DHT22;26753;45.544;9.232;2023-02-20T19:24:08;13.00;99.90
40660;DHT22;26753;45.544;9.232;2023-02-20T19:26:34;13.00;99.90
40660;DHT22;26753;45.544;9.232;2023-02-20T19:29:05;13.50;99.90
40660;DHT22;26753;45.544;9.232;2023-02-20T19:31:31;12.90;99.90
40660;DHT22;26753;45.544;9.232;2023-02-20T19:33:56;12.80;99.90
40660;DHT22;26753;45.544;9.232;2023-02-20T19:36:22;12.20;99.90
40660;DHT22;26753;45.544;9.232;2023-02-20T19:38:48;13.10;99.90
40660;DHT22;26753;45.544;9.232;2023-02-20T19:41:16;13.90;99.90
40660;DHT22;26753;45.544;9.232;2023-02-20T19:43:42;13.10;99.90
40660;DHT22;26753;45.544;9.232;2023-02-20T19:46:14;12.60;99.90
40660;DHT22;26753;45.544;9.232;2023-02-20T19:48:48;11.90;99.90
40660;DHT22;26753;45.544;9.232;2023-02-20T19:51:19;13.50;99.90
40660;DHT22;26753;45.544;9.232;2023-02-20T19:53:48;13.20;99.90
40660;DHT22;26753;45.544;9.232;2023-02-20T19:56:31;12.10;99.90
40660;DHT22;26753;45.544;9.232;2023-02-20T20:02:11;13.10;99.90
40660;DHT22;26753;45.544;9.232;2023-02-20T20:04:39;12.50;99.90
40660;DHT22;26753;45.544;9.232;2023-02-20T20:07:10;11.10;99.90
40660;DHT22;26753;45.544;9.232;2023-02-20T20:09:36;13.30;99.90
40660;DHT22;26753;45.544;9.232;2023-02-20T20:12:05;10.80;99.90